createdAt,value
2023-05-23T00:02:19.744Z,100841.80
2023-05-23T00:04:47.320Z,100844.48
2023-05-23T00:07:14.945Z,100843.69
2023-05-23T00:09:42.385Z,100845.00
2023-05-23T00:12:09.980Z,100842.16
2023-05-23T00:14:37.646Z,100838.59
2023-05-23T00:17:06.286Z,100843.20
2023-05-23T00:19:36.799Z,100842.58
2023-05-23T00:22:05.108Z,100846.11
2023-05-23T00:24:32.556Z,100845.35
2023-05-23T00:27:00.539Z,100843.34
2023-05-23T00:29:28.093Z,100841.52
2023-05-23T00:31:55.961Z,100841.43
2023-05-23T00:34:23.371Z,100841.84
2023-05-23T00:36:51.190Z,100842.27
2023-05-23T00:39:21.926Z,100842.67
2023-05-23T00:41:52.205Z,100844.20
2023-05-23T00:44:21.541Z,100845.65
2023-05-23T00:46:52.639Z,100842.43
2023-05-23T00:49:20.853Z,100843.91
2023-05-23T00:51:50.056Z,100842.09
2023-05-23T00:54:28.682Z,100839.75
2023-05-23T00:56:56.355Z,100835.81
2023-05-23T00:59:25.233Z,100838.15
2023-05-23T01:01:53.328Z,100832.13
2023-05-23T01:04:21.433Z,100832.04
2023-05-23T01:06:49.548Z,100830.42
2023-05-23T01:09:17.198Z,100827.63
2023-05-23T01:11:57.753Z,100824.64
2023-05-23T01:14:57.484Z,100824.61
2023-05-23T01:17:29.545Z,100822.39
2023-05-23T01:20:06.219Z,100822.54
2023-05-23T01:22:40.114Z,100822.15
2023-05-23T01:25:32.862Z,100820.73
2023-05-23T01:28:01.995Z,100821.39
2023-05-23T01:30:32.647Z,100821.19
2023-05-23T01:33:01.604Z,100819.09
2023-05-23T01:35:29.159Z,100817.64
2023-05-23T01:37:56.899Z,100816.89
2023-05-23T01:40:24.971Z,100814.94
2023-05-23T01:42:53.579Z,100816.44
2023-05-23T01:45:22.042Z,100812.75
2023-05-23T01:47:50.679Z,100813.02
2023-05-23T01:50:18.385Z,100811.38
2023-05-23T01:52:47.169Z,100810.98
2023-05-23T01:55:15.934Z,100807.11
2023-05-23T01:57:43.720Z,100799.78
2023-05-23T02:00:12.474Z,100794.34
2023-05-23T02:02:42.828Z,100795.95
2023-05-23T02:05:11.623Z,100794.67
2023-05-23T02:07:39.893Z,100794.04
2023-05-23T02:10:10.634Z,100793.74
2023-05-23T02:12:38.870Z,100792.23
2023-05-23T02:15:07.930Z,100791.23
2023-05-23T02:17:35.694Z,100790.93
2023-05-23T02:20:04.034Z,100789.19
2023-05-23T02:22:31.860Z,100781.39
2023-05-23T02:24:59.274Z,100783.16
2023-05-23T02:27:26.916Z,100781.11
2023-05-23T02:29:54.580Z,100779.05
2023-05-23T02:32:22.140Z,100776.98
2023-05-23T02:34:50.729Z,100775.39
2023-05-23T02:37:18.384Z,100772.25
2023-05-23T02:39:45.942Z,100769.46
2023-05-23T02:42:14.627Z,100769.45
2023-05-23T02:44:42.393Z,100769.93
2023-05-23T02:47:09.972Z,100773.37
2023-05-23T02:49:37.613Z,100777.48
2023-05-23T02:52:07.114Z,100781.59
2023-05-23T02:54:34.777Z,100778.74
2023-05-23T02:57:02.330Z,100777.45
2023-05-23T02:59:30.830Z,100775.83
2023-05-23T03:01:58.534Z,100773.72
2023-05-23T03:04:26.020Z,100772.66
2023-05-23T03:06:54.621Z,100774.90
2023-05-23T03:09:22.384Z,100778.16
2023-05-23T03:11:51.528Z,100780.85
2023-05-23T03:14:19.136Z,100783.50
2023-05-23T03:16:47.095Z,100787.70
2023-05-23T03:19:14.905Z,100790.00
2023-05-23T03:21:42.839Z,100793.86
2023-05-23T03:24:10.779Z,100794.91
2023-05-23T03:26:38.470Z,100796.48
2023-05-23T03:29:07.047Z,100800.13
2023-05-23T03:31:34.758Z,100805.48
2023-05-23T03:34:03.292Z,100805.10
2023-05-23T03:36:33.525Z,100807.80
2023-05-23T03:39:01.270Z,100814.30
2023-05-23T03:41:28.951Z,100820.11
2023-05-23T03:43:56.910Z,100827.17
2023-05-23T03:46:25.513Z,100829.02
2023-05-23T03:48:53.455Z,100834.84
2023-05-23T03:51:21.323Z,100842.09
2023-05-23T03:53:49.187Z,100850.23
2023-05-23T03:56:16.856Z,100858.23
2023-05-23T03:58:44.513Z,100868.65
2023-05-23T04:01:15.253Z,100879.00
2023-05-23T04:03:42.952Z,100890.02
2023-05-23T04:06:12.203Z,100894.59
2023-05-23T04:08:43.869Z,100900.30
2023-05-23T04:11:12.649Z,100900.48
2023-05-23T04:13:42.974Z,100908.26
2023-05-23T04:16:11.774Z,100905.93
2023-05-23T04:18:39.532Z,100910.64
2023-05-23T04:21:09.337Z,100911.97
2023-05-23T04:23:41.193Z,100911.38
2023-05-23T04:26:10.422Z,100905.42
2023-05-23T04:28:46.557Z,100889.20
2023-05-23T04:31:15.365Z,100863.74
2023-05-23T04:33:43.612Z,100823.39
2023-05-23T04:36:11.881Z,100773.18
2023-05-23T04:38:42.517Z,100710.67
2023-05-23T04:41:13.249Z,100647.33
2023-05-23T04:44:07.458Z,100586.15
2023-05-23T04:46:45.473Z,100537.80
2023-05-23T04:49:37.679Z,100478.66
2023-05-23T04:52:05.772Z,100438.70
2023-05-23T04:54:34.115Z,100408.42
2023-05-23T04:57:06.376Z,100381.23
2023-05-23T04:59:34.358Z,100365.10
2023-05-23T05:02:03.212Z,100346.21
2023-05-23T05:04:30.717Z,100328.77
2023-05-23T05:06:58.336Z,100318.09
2023-05-23T05:09:26.096Z,100310.64
2023-05-23T05:11:54.208Z,100304.04
2023-05-23T05:14:22.537Z,100302.39
2023-05-23T05:16:50.861Z,100304.89
2023-05-23T05:19:18.795Z,100305.88
2023-05-23T05:21:47.208Z,100307.00
2023-05-23T05:24:15.885Z,100310.48
2023-05-23T05:26:43.902Z,100317.11
2023-05-23T05:29:11.436Z,100326.79
2023-05-23T05:31:39.009Z,100343.41
2023-05-23T05:34:06.483Z,100362.56
2023-05-23T05:39:52.429Z,100390.00
2023-05-23T05:42:21.231Z,100401.71
2023-05-23T05:44:50.014Z,100413.54
2023-05-23T05:47:17.666Z,100427.23
2023-05-23T05:49:46.046Z,100429.17
2023-05-23T05:52:14.424Z,100438.27
2023-05-23T05:54:41.988Z,100434.38
2023-05-23T05:57:09.556Z,100437.01
2023-05-23T05:59:37.206Z,100444.48
2023-05-23T06:02:05.315Z,100447.45
2023-05-23T06:04:32.989Z,100451.68
2023-05-23T06:07:00.717Z,100466.77
2023-05-23T06:09:28.364Z,100471.75
2023-05-23T06:11:56.162Z,100477.06
2023-05-23T06:14:23.788Z,100469.21
2023-05-23T06:16:51.956Z,100469.23
2023-05-23T06:19:20.164Z,100476.05
2023-05-23T06:21:47.997Z,100504.27
2023-05-23T06:24:16.070Z,100496.52
2023-05-23T06:26:44.857Z,100492.56
2023-05-23T06:29:13.543Z,100500.27
2023-05-23T06:31:41.245Z,100513.83
2023-05-23T06:34:09.063Z,100514.14
2023-05-23T06:36:36.646Z,100505.83
2023-05-23T06:39:04.393Z,100517.73
2023-05-23T06:41:31.980Z,100510.54
2023-05-23T06:43:59.636Z,100495.02
2023-05-23T06:46:28.236Z,100508.64
2023-05-23T06:49:06.535Z,100507.20
2023-05-23T06:51:41.497Z,100503.49
2023-05-23T06:54:09.602Z,100482.91
2023-05-23T06:56:38.412Z,100482.61
2023-05-23T06:59:06.256Z,100490.70
2023-05-23T07:01:34.116Z,100469.77
2023-05-23T07:04:01.782Z,100463.23
2023-05-23T07:06:29.778Z,100459.92
2023-05-23T07:08:58.232Z,100477.30
2023-05-23T07:11:26.709Z,100489.92
2023-05-23T07:13:56.834Z,100470.80
2023-05-23T07:16:36.694Z,100483.55
2023-05-23T07:19:07.176Z,100485.81
2023-05-23T07:21:38.170Z,100494.43
2023-05-23T07:24:06.596Z,100493.07
2023-05-23T07:26:34.595Z,100467.73
2023-05-23T07:29:02.217Z,100437.84
2023-05-23T07:31:29.980Z,100433.77
2023-05-23T07:33:59.636Z,100422.86
2023-05-23T07:36:35.985Z,100387.70
2023-05-23T07:39:04.570Z,100398.54
2023-05-23T07:41:32.233Z,100433.66
2023-05-23T07:44:00.303Z,100478.39
2023-05-23T07:46:28.109Z,100488.93
2023-05-23T07:48:57.097Z,100509.05
2023-05-23T07:51:25.027Z,100530.46
2023-05-23T07:53:52.802Z,100541.70
2023-05-23T07:56:21.371Z,100535.33
2023-05-23T07:58:49.034Z,100534.50
2023-05-23T08:01:17.007Z,100535.79
2023-05-23T08:04:07.844Z,100519.02
2023-05-23T08:06:45.676Z,100485.39
2023-05-23T08:09:26.516Z,100457.73
2023-05-23T08:11:56.285Z,100485.98
2023-05-23T08:14:25.958Z,100509.31
2023-05-23T08:17:13.419Z,100497.71
2023-05-23T08:19:42.425Z,100474.56
2023-05-23T08:22:10.389Z,100444.11
2023-05-23T08:24:38.048Z,100421.96
2023-05-23T08:27:07.906Z,100439.19
2023-05-23T08:29:36.859Z,100457.02
2023-05-23T08:32:04.829Z,100450.30
2023-05-23T08:34:33.195Z,100485.47
2023-05-23T08:37:01.441Z,100423.99
2023-05-23T08:39:29.240Z,100406.25
2023-05-23T08:42:09.909Z,100417.05
2023-05-23T08:44:38.288Z,100424.54
2023-05-23T08:47:05.956Z,100424.05
2023-05-23T08:49:46.912Z,100411.16
2023-05-23T08:52:15.085Z,100419.58
2023-05-23T08:54:44.384Z,100446.47
2023-05-23T08:57:14.622Z,100420.58
2023-05-23T08:59:46.572Z,100386.38
2023-05-23T09:02:14.130Z,100351.75
2023-05-23T09:04:41.943Z,100344.70
2023-05-23T09:07:21.117Z,100345.98
2023-05-23T09:09:49.422Z,100336.06
2023-05-23T09:12:17.663Z,100377.24
2023-05-23T09:14:47.379Z,100424.86
2023-05-23T09:17:21.838Z,100447.42
2023-05-23T09:19:49.652Z,100481.63
2023-05-23T09:22:27.737Z,100497.27
2023-05-23T09:25:02.603Z,100512.39
2023-05-23T09:27:31.439Z,100517.55
2023-05-23T09:29:59.354Z,100514.08
2023-05-23T09:32:28.110Z,100505.48
2023-05-23T09:35:00.011Z,100497.84
2023-05-23T09:37:41.181Z,100473.05
2023-05-23T09:40:16.396Z,100486.62
2023-05-23T09:42:53.814Z,100489.56
2023-05-23T09:45:21.572Z,100502.81
2023-05-23T09:47:51.163Z,100496.64
2023-05-23T09:50:19.260Z,100499.44
2023-05-23T09:52:47.359Z,100501.95
2023-05-23T09:55:15.510Z,100500.89
2023-05-23T09:57:44.039Z,100493.59
2023-05-23T10:00:13.925Z,100478.63
2023-05-23T10:03:14.113Z,100474.90
2023-05-23T10:05:49.353Z,100431.05
2023-05-23T10:08:48.788Z,100427.46
2023-05-23T10:57:45.310Z,100411.54
2023-05-23T11:00:16.556Z,100437.69
2023-05-23T11:02:55.460Z,100455.45
2023-05-23T11:05:25.172Z,100447.81
2023-05-23T11:08:11.495Z,100435.26
2023-05-23T11:11:01.245Z,100452.58
2023-05-23T11:13:55.726Z,100432.84
2023-05-23T11:16:41.905Z,100435.84
2023-05-23T11:19:30.234Z,100455.85
2023-05-23T11:22:00.500Z,100450.27
2023-05-23T11:24:53.857Z,100380.69
2023-05-23T11:27:40.502Z,100385.48
2023-05-23T11:30:10.473Z,100403.84
2023-05-23T11:32:38.395Z,100397.80
2023-05-23T11:35:10.684Z,100386.94
2023-05-23T11:37:38.796Z,100400.44
2023-05-23T11:40:35.553Z,100354.02
2023-05-23T11:43:08.113Z,100324.16
2023-05-23T11:45:36.835Z,100320.32
2023-05-23T11:48:08.241Z,100300.98
2023-05-23T11:50:53.656Z,100327.58
2023-05-23T11:53:22.768Z,100344.61
2023-05-23T11:55:55.343Z,100384.45
2023-05-23T11:58:26.530Z,100422.12
2023-05-23T12:01:03.995Z,100422.64
2023-05-23T12:03:32.067Z,100444.01
2023-05-23T12:06:01.154Z,100445.91
2023-05-23T12:08:28.760Z,100410.35
2023-05-23T12:11:00.605Z,100411.94
2023-05-23T12:13:31.561Z,100377.45
2023-05-23T12:16:01.232Z,100397.19
2023-05-23T12:18:30.856Z,100367.41
2023-05-23T12:21:08.634Z,100366.84
2023-05-23T12:23:36.842Z,100343.02
2023-05-23T12:26:12.679Z,100354.19
2023-05-23T12:28:43.297Z,100300.05
2023-05-23T12:31:21.819Z,100329.76
2023-05-23T12:33:50.193Z,100344.86
2023-05-23T12:36:23.070Z,100357.80
2023-05-23T12:38:50.758Z,100387.55
2023-05-23T12:41:20.257Z,100401.94
2023-05-23T12:43:54.870Z,100377.46
2023-05-23T12:46:27.066Z,100343.11
2023-05-23T12:48:54.705Z,100317.00
2023-05-23T12:51:22.424Z,100297.43
2023-05-23T12:53:49.963Z,100332.55
2023-05-23T12:56:17.694Z,100329.16
2023-05-23T12:58:45.355Z,100334.55
2023-05-23T13:01:13.274Z,100313.13
2023-05-23T13:03:41.103Z,100247.77
2023-05-23T13:06:08.743Z,100277.40
2023-05-23T13:08:36.401Z,100217.80
2023-05-23T13:11:04.370Z,100178.23
2023-05-23T13:13:33.995Z,100196.23
2023-05-23T13:16:01.743Z,100223.70
2023-05-23T13:18:29.323Z,100261.36
2023-05-23T13:20:57.986Z,100256.09
2023-05-23T13:23:26.467Z,100299.67
2023-05-23T13:25:54.438Z,100296.08
2023-05-23T13:28:21.914Z,100320.52
2023-05-23T13:30:49.804Z,100370.31
2023-05-23T13:33:17.767Z,100389.73
2023-05-23T13:35:45.822Z,100402.91
2023-05-23T13:38:13.455Z,100416.52
2023-05-23T13:40:41.256Z,100420.79
2023-05-23T13:43:09.184Z,100405.54
2023-05-23T13:45:37.814Z,100381.88
2023-05-23T13:48:05.407Z,100368.77
2023-05-23T13:50:33.299Z,100355.07
2023-05-23T13:53:01.068Z,100361.81
2023-05-23T13:55:29.128Z,100376.89
2023-05-23T13:57:57.517Z,100363.50
2023-05-23T14:00:25.092Z,100359.84
2023-05-23T14:02:52.820Z,100365.77
2023-05-23T14:05:20.557Z,100346.69
2023-05-23T14:07:48.677Z,100333.99
2023-05-23T14:10:17.633Z,100313.95
2023-05-23T14:12:45.366Z,100341.49
2023-05-23T14:15:12.850Z,100370.56
2023-05-23T14:17:40.685Z,100360.65
2023-05-23T14:20:09.255Z,100366.60
2023-05-23T14:22:36.913Z,100332.94
2023-05-23T14:25:05.284Z,100329.71
2023-05-23T14:27:33.955Z,100277.80
2023-05-23T14:30:01.630Z,100266.98
2023-05-23T14:32:29.294Z,100242.55
2023-05-23T14:34:56.926Z,100219.23
2023-05-23T14:37:24.585Z,100228.59
2023-05-23T14:39:52.524Z,100237.60
2023-05-23T14:42:20.327Z,100261.77
2023-05-23T14:44:47.877Z,100282.20
2023-05-23T14:47:16.051Z,100246.77
2023-05-23T14:49:43.607Z,100268.02
2023-05-23T14:52:12.907Z,100276.52
2023-05-23T14:54:41.900Z,100292.08
2023-05-23T14:57:09.981Z,100287.59
2023-05-23T14:59:37.645Z,100314.66
2023-05-23T15:02:07.738Z,100319.82
2023-05-23T15:04:36.049Z,100313.07
2023-05-23T15:07:04.008Z,100288.58
2023-05-23T15:09:31.571Z,100330.84
2023-05-23T15:11:59.741Z,100403.52
2023-05-23T15:14:29.967Z,100466.00
2023-05-23T15:16:57.922Z,100511.18
2023-05-23T15:19:25.380Z,100481.67
2023-05-23T15:21:53.566Z,100389.77
2023-05-23T15:24:21.234Z,100313.93
2023-05-23T15:26:49.277Z,100291.92
2023-05-23T15:29:18.260Z,100276.54
2023-05-23T15:31:46.049Z,100297.62
2023-05-23T15:34:13.894Z,100333.42
2023-05-23T15:36:41.308Z,100371.41
2023-05-23T15:39:08.958Z,100414.39
2023-05-23T15:41:36.582Z,100486.19
2023-05-23T15:44:04.308Z,100544.20
2023-05-23T15:46:32.079Z,100585.29
2023-05-23T15:49:05.014Z,100625.70
2023-05-23T15:51:38.484Z,100649.62
2023-05-23T15:54:06.756Z,100668.49
2023-05-23T15:56:34.421Z,100686.17
2023-05-23T15:59:01.973Z,100698.95
2023-05-23T16:01:30.577Z,100706.60
2023-05-23T16:03:58.265Z,100714.21
2023-05-23T16:06:26.284Z,100717.98
2023-05-23T16:08:54.536Z,100719.45
2023-05-23T16:11:22.219Z,100719.16
2023-05-23T16:13:50.529Z,100717.42
2023-05-23T16:16:18.072Z,100716.89
2023-05-23T16:18:45.823Z,100716.17
2023-05-23T16:21:13.280Z,100714.89
2023-05-23T16:23:40.854Z,100714.75
2023-05-23T16:26:09.731Z,100710.58
2023-05-23T16:28:37.288Z,100708.30
2023-05-23T16:31:05.812Z,100701.29
2023-05-23T16:33:33.428Z,100695.15
2023-05-23T16:36:01.091Z,100686.94
2023-05-23T16:38:28.659Z,100683.59
2023-05-23T16:40:56.526Z,100678.36
2023-05-23T16:43:25.001Z,100674.35
2023-05-23T16:45:52.886Z,100670.71
2023-05-23T16:48:21.652Z,100665.49
2023-05-23T16:50:49.825Z,100659.75
2023-05-23T16:53:17.894Z,100658.52
2023-05-23T16:55:46.400Z,100653.26
2023-05-23T16:58:14.137Z,100648.23
2023-05-23T17:00:41.798Z,100645.77
2023-05-23T17:03:10.463Z,100646.09
2023-05-23T17:05:39.524Z,100643.41
2023-05-23T17:08:08.025Z,100645.15
2023-05-23T17:10:35.832Z,100647.94
2023-05-23T17:13:03.377Z,100651.22
2023-05-23T17:15:32.508Z,100655.39
2023-05-23T17:18:00.303Z,100663.54
2023-05-23T17:20:27.853Z,100668.73
2023-05-23T17:22:56.058Z,100675.11
2023-05-23T17:25:24.133Z,100679.29
2023-05-23T17:27:52.113Z,100682.56
2023-05-23T17:30:19.862Z,100685.45
2023-05-23T17:32:48.016Z,100684.88
2023-05-23T17:35:16.480Z,100685.55
2023-05-23T17:37:45.195Z,100686.38
2023-05-23T17:40:13.416Z,100692.96
2023-05-23T17:42:41.293Z,100695.50
2023-05-23T17:45:12.236Z,100689.95
2023-05-23T17:47:39.862Z,100688.13
2023-05-23T17:50:08.486Z,100689.63
2023-05-23T17:52:36.086Z,100686.90
2023-05-23T17:55:04.165Z,100685.73
2023-05-23T17:57:31.817Z,100682.88
2023-05-23T17:59:59.885Z,100682.95
2023-05-23T18:02:28.055Z,100678.36
2023-05-23T18:04:55.929Z,100671.70
2023-05-23T18:07:23.588Z,100665.90
2023-05-23T18:09:51.147Z,100662.86
2023-05-23T18:12:18.718Z,100666.10
2023-05-23T18:14:46.263Z,100660.63
2023-05-23T18:17:14.084Z,100666.10
2023-05-23T18:19:42.204Z,100662.23
2023-05-23T18:22:09.964Z,100659.10
2023-05-23T18:24:37.624Z,100655.20
2023-05-23T18:27:05.933Z,100655.69
2023-05-23T18:29:33.557Z,100648.70
2023-05-23T18:32:01.187Z,100640.88
2023-05-23T18:34:29.359Z,100645.70
2023-05-23T18:36:57.256Z,100644.93
2023-05-23T18:39:24.828Z,100642.39
2023-05-23T18:41:52.682Z,100641.07
2023-05-23T18:44:21.095Z,100640.12
2023-05-23T18:46:49.064Z,100637.45
2023-05-23T18:49:17.207Z,100638.45
2023-05-23T18:51:45.783Z,100637.30
2023-05-23T18:54:13.267Z,100634.24
2023-05-23T18:56:40.903Z,100632.80
2023-05-23T18:59:08.873Z,100636.68
2023-05-23T19:01:36.673Z,100640.25
2023-05-23T19:04:04.298Z,100638.08
2023-05-23T19:06:32.058Z,100637.98
2023-05-23T19:08:59.723Z,100639.56
2023-05-23T19:11:27.894Z,100640.06
2023-05-23T19:13:55.483Z,100637.80
2023-05-23T19:16:24.165Z,100634.71
2023-05-23T19:18:51.844Z,100636.65
2023-05-23T19:21:19.457Z,100635.11
2023-05-23T19:23:47.428Z,100632.19
2023-05-23T19:26:16.134Z,100631.58
2023-05-23T19:28:44.388Z,100625.48
2023-05-23T19:31:12.663Z,100625.08
2023-05-23T19:33:40.126Z,100620.15
2023-05-23T19:36:07.778Z,100624.20
2023-05-23T19:38:35.547Z,100623.18
2023-05-23T19:41:03.723Z,100620.95
2023-05-23T19:43:31.270Z,100623.25
2023-05-23T19:45:59.570Z,100621.69
2023-05-23T19:48:27.217Z,100619.07
2023-05-23T19:50:54.875Z,100619.19
2023-05-23T19:53:23.247Z,100620.22
2023-05-23T19:55:51.346Z,100622.11
2023-05-23T19:58:19.186Z,100621.58
2023-05-23T20:00:47.256Z,100619.86
2023-05-23T20:03:15.256Z,100615.23
2023-05-23T20:05:43.323Z,100612.16
2023-05-23T20:08:11.101Z,100609.73
2023-05-23T20:10:39.407Z,100605.83
2023-05-23T20:13:07.313Z,100605.73
2023-05-23T20:15:40.153Z,100606.42
2023-05-23T20:18:08.595Z,100608.28
2023-05-23T20:20:36.940Z,100609.83
2023-05-23T20:23:05.879Z,100611.87
2023-05-23T20:25:34.214Z,100611.99
2023-05-23T20:28:02.076Z,100612.37
2023-05-23T20:30:29.632Z,100610.55
2023-05-23T20:32:57.287Z,100611.70
2023-05-23T20:35:26.082Z,100612.45
2023-05-23T20:37:53.916Z,100612.15
2023-05-23T20:40:22.842Z,100612.04
2023-05-23T20:42:50.808Z,100613.45
2023-05-23T20:45:18.391Z,100609.48
2023-05-23T20:47:46.542Z,100607.16
2023-05-23T20:50:15.015Z,100601.23
2023-05-23T20:52:43.391Z,100602.90
2023-05-23T20:55:11.175Z,100600.11
2023-05-23T20:57:39.772Z,100599.10
2023-05-23T21:00:12.546Z,100597.86
2023-05-23T21:02:40.919Z,100599.63
2023-05-23T21:05:09.751Z,100594.65
2023-05-23T21:07:37.357Z,100591.00
2023-05-23T21:10:05.575Z,100592.59
2023-05-23T21:12:33.200Z,100592.86
2023-05-23T21:15:00.941Z,100589.15
2023-05-23T21:17:29.145Z,100587.39
2023-05-23T21:19:56.684Z,100588.47
2023-05-23T21:22:24.344Z,100588.19
2023-05-23T21:24:52.001Z,100582.90
2023-05-23T21:27:19.972Z,100579.85
2023-05-23T21:29:47.732Z,100579.70
2023-05-23T21:32:15.392Z,100577.48
2023-05-23T21:34:42.981Z,100577.36
2023-05-23T21:37:10.974Z,100577.56
2023-05-23T21:39:51.220Z,100577.65
2023-05-23T21:42:20.741Z,100580.09
2023-05-23T21:44:48.372Z,100577.70
2023-05-23T21:47:16.370Z,100578.41
2023-05-23T21:49:43.988Z,100572.80
2023-05-23T21:52:11.639Z,100574.87
2023-05-23T21:54:39.115Z,100571.23
2023-05-23T21:57:06.762Z,100571.89
2023-05-23T21:59:34.313Z,100570.40
2023-05-23T22:02:02.191Z,100566.98
2023-05-23T22:04:29.898Z,100565.23
2023-05-23T22:06:57.501Z,100566.73
2023-05-23T22:09:25.054Z,100569.60
2023-05-23T22:11:53.536Z,100569.41
2023-05-23T22:14:21.808Z,100568.23
2023-05-23T22:16:50.505Z,100570.48
2023-05-23T22:19:20.325Z,100564.35
2023-05-23T22:21:48.074Z,100566.15
2023-05-23T22:24:15.726Z,100566.73
2023-05-23T22:26:43.401Z,100566.61
2023-05-23T22:29:11.157Z,100565.80
2023-05-23T22:31:38.894Z,100566.79
2023-05-23T22:34:06.579Z,100566.73
2023-05-23T22:36:34.101Z,100567.98
2023-05-23T22:39:02.720Z,100565.30
2023-05-23T22:41:30.282Z,100567.05
2023-05-23T22:43:58.128Z,100564.41
2023-05-23T22:46:25.779Z,100566.18
2023-05-23T22:48:55.236Z,100566.71
2023-05-23T22:51:23.414Z,100570.55
2023-05-23T22:53:51.456Z,100572.75
2023-05-23T22:56:19.128Z,100574.71
2023-05-23T22:58:46.677Z,100573.21
2023-05-23T23:01:14.293Z,100570.12
2023-05-23T23:05:33.364Z,100579.94
2023-05-23T23:08:00.999Z,100574.92
2023-05-23T23:10:28.624Z,100575.39
2023-05-23T23:12:56.395Z,100572.58
2023-05-23T23:15:24.804Z,100570.06
2023-05-23T23:17:52.600Z,100571.08
2023-05-23T23:20:22.555Z,100572.48
2023-05-23T23:22:50.384Z,100572.30
2023-05-23T23:25:19.064Z,100572.65
2023-05-23T23:27:46.660Z,100569.13
2023-05-23T23:30:14.340Z,100568.80
2023-05-23T23:32:42.141Z,100568.98
2023-05-23T23:35:09.777Z,100571.00
2023-05-23T23:37:37.410Z,100571.22
2023-05-23T23:40:05.574Z,100569.24
2023-05-23T23:42:33.232Z,100567.25
2023-05-23T23:45:01.611Z,100567.64
2023-05-23T23:47:29.237Z,100564.39
2023-05-23T23:49:56.712Z,100562.20
2023-05-23T23:52:24.316Z,100562.33
2023-05-23T23:54:51.948Z,100561.59
2023-05-23T23:57:19.502Z,100559.52
2023-05-23T23:59:47.475Z,100555.05
